sensor_id;sensor_type;location;lat;lon;timestamp;P1;durP1;ratioP1;P2;durP2;ratioP2
8478;SDS011;4276;49.354;6.804;2023-12-04T00:01:48;14.80;;;12.97;;
8478;SDS011;4276;49.354;6.804;2023-12-04T00:04:14;18.73;;;15.73;;
8478;SDS011;4276;49.354;6.804;2023-12-04T00:06:41;16.73;;;13.83;;
8478;SDS011;4276;49.354;6.804;2023-12-04T00:09:08;15.83;;;13.37;;
8478;SDS011;4276;49.354;6.804;2023-12-04T00:11:34;16.77;;;13.67;;
8478;SDS011;4276;49.354;6.804;2023-12-04T00:14:01;16.43;;;13.40;;
8478;SDS011;4276;49.354;6.804;2023-12-04T00:16:28;16.43;;;13.73;;
8478;SDS011;4276;49.354;6.804;2023-12-04T00:18:55;15.30;;;12.60;;
8478;SDS011;4276;49.354;6.804;2023-12-04T00:21:21;16.77;;;14.97;;
8478;SDS011;4276;49.354;6.804;2023-12-04T00:23:48;15.03;;;13.33;;
8478;SDS011;4276;49.354;6.804;2023-12-04T00:26:15;14.57;;;12.97;;
8478;SDS011;4276;49.354;6.804;2023-12-04T00:28:41;14.97;;;13.37;;
8478;SDS011;4276;49.354;6.804;2023-12-04T00:31:08;14.60;;;13.07;;
8478;SDS011;4276;49.354;6.804;2023-12-04T00:33:35;15.13;;;13.50;;
8478;SDS011;4276;49.354;6.804;2023-12-04T00:36:01;15.77;;;13.63;;
8478;SDS011;4276;49.354;6.804;2023-12-04T00:38:28;17.00;;;14.37;;
8478;SDS011;4276;49.354;6.804;2023-12-04T00:40:55;17.23;;;13.77;;
8478;SDS011;4276;49.354;6.804;2023-12-04T00:43:21;16.10;;;13.77;;
8478;SDS011;4276;49.354;6.804;2023-12-04T00:45:48;15.73;;;12.70;;
8478;SDS011;4276;49.354;6.804;2023-12-04T00:48:15;17.03;;;14.07;;
8478;SDS011;4276;49.354;6.804;2023-12-04T00:50:41;15.80;;;13.27;;
8478;SDS011;4276;49.354;6.804;2023-12-04T00:53:08;14.70;;;12.80;;
8478;SDS011;4276;49.354;6.804;2023-12-04T00:55:34;14.03;;;12.53;;
8478;SDS011;4276;49.354;6.804;2023-12-04T00:58:01;15.93;;;13.13;;
8478;SDS011;4276;49.354;6.804;2023-12-04T01:00:28;14.33;;;12.83;;
8478;SDS011;4276;49.354;6.804;2023-12-04T01:02:55;13.23;;;11.77;;
8478;SDS011;4276;49.354;6.804;2023-12-04T01:05:21;15.10;;;12.60;;
8478;SDS011;4276;49.354;6.804;2023-12-04T01:07:48;13.73;;;12.33;;
8478;SDS011;4276;49.354;6.804;2023-12-04T01:10:14;14.67;;;13.10;;
8478;SDS011;4276;49.354;6.804;2023-12-04T01:12:41;13.83;;;12.13;;
8478;SDS011;4276;49.354;6.804;2023-12-04T01:15:07;13.23;;;11.07;;
8478;SDS011;4276;49.354;6.804;2023-12-04T01:17:35;13.63;;;11.80;;
8478;SDS011;4276;49.354;6.804;2023-12-04T01:20:02;13.80;;;12.07;;
8478;SDS011;4276;49.354;6.804;2023-12-04T01:22:29;12.93;;;11.40;;
8478;SDS011;4276;49.354;6.804;2023-12-04T01:24:55;12.90;;;11.10;;
8478;SDS011;4276;49.354;6.804;2023-12-04T01:27:23;13.23;;;11.60;;
8478;SDS011;4276;49.354;6.804;2023-12-04T01:29:49;12.10;;;10.67;;
8478;SDS011;4276;49.354;6.804;2023-12-04T01:32:16;13.13;;;11.73;;
8478;SDS011;4276;49.354;6.804;2023-12-04T01:34:42;13.23;;;11.50;;
8478;SDS011;4276;49.354;6.804;2023-12-04T01:37:10;12.53;;;10.97;;
8478;SDS011;4276;49.354;6.804;2023-12-04T01:39:36;13.57;;;11.17;;
8478;SDS011;4276;49.354;6.804;2023-12-04T01:42:03;12.43;;;10.63;;
8478;SDS011;4276;49.354;6.804;2023-12-04T01:44:30;12.30;;;11.10;;
8478;SDS011;4276;49.354;6.804;2023-12-04T01:46:56;13.47;;;11.90;;
8478;SDS011;4276;49.354;6.804;2023-12-04T01:49:24;12.53;;;11.23;;
8478;SDS011;4276;49.354;6.804;2023-12-04T01:51:51;14.20;;;10.87;;
8478;SDS011;4276;49.354;6.804;2023-12-04T01:54:17;12.57;;;11.27;;
8478;SDS011;4276;49.354;6.804;2023-12-04T01:56:45;12.67;;;11.13;;
8478;SDS011;4276;49.354;6.804;2023-12-04T01:59:12;12.07;;;10.13;;
8478;SDS011;4276;49.354;6.804;2023-12-04T02:01:39;11.80;;;10.60;;
8478;SDS011;4276;49.354;6.804;2023-12-04T02:04:06;12.13;;;10.60;;
8478;SDS011;4276;49.354;6.804;2023-12-04T02:06:33;12.03;;;10.83;;
8478;SDS011;4276;49.354;6.804;2023-12-04T02:09:01;13.33;;;11.30;;
8478;SDS011;4276;49.354;6.804;2023-12-04T02:11:28;13.87;;;11.03;;
8478;SDS011;4276;49.354;6.804;2023-12-04T02:13:54;13.77;;;11.70;;
8478;SDS011;4276;49.354;6.804;2023-12-04T02:16:21;15.27;;;13.67;;
8478;SDS011;4276;49.354;6.804;2023-12-04T02:18:50;16.03;;;13.13;;
8478;SDS011;4276;49.354;6.804;2023-12-04T02:21:18;14.87;;;13.27;;
8478;SDS011;4276;49.354;6.804;2023-12-04T02:23:48;15.53;;;13.03;;
8478;SDS011;4276;49.354;6.804;2023-12-04T02:26:16;15.03;;;12.77;;
8478;SDS011;4276;49.354;6.804;2023-12-04T02:28:46;14.37;;;12.10;;
8478;SDS011;4276;49.354;6.804;2023-12-04T02:31:18;14.53;;;12.70;;
8478;SDS011;4276;49.354;6.804;2023-12-04T02:33:45;13.13;;;11.73;;
8478;SDS011;4276;49.354;6.804;2023-12-04T02:36:13;13.30;;;11.87;;
8478;SDS011;4276;49.354;6.804;2023-12-04T02:38:40;14.37;;;12.33;;
8478;SDS011;4276;49.354;6.804;2023-12-04T02:41:07;14.73;;;12.13;;
8478;SDS011;4276;49.354;6.804;2023-12-04T02:43:33;13.23;;;11.77;;
8478;SDS011;4276;49.354;6.804;2023-12-04T02:46:00;15.00;;;12.33;;
8478;SDS011;4276;49.354;6.804;2023-12-04T02:48:27;13.70;;;12.17;;
8478;SDS011;4276;49.354;6.804;2023-12-04T02:50:54;14.37;;;12.50;;
8478;SDS011;4276;49.354;6.804;2023-12-04T02:53:21;14.57;;;12.93;;
8478;SDS011;4276;49.354;6.804;2023-12-04T02:55:47;14.17;;;12.57;;
8478;SDS011;4276;49.354;6.804;2023-12-04T02:58:15;13.50;;;11.90;;
8478;SDS011;4276;49.354;6.804;2023-12-04T03:00:42;15.07;;;12.70;;
8478;SDS011;4276;49.354;6.804;2023-12-04T03:03:08;15.03;;;13.33;;
8478;SDS011;4276;49.354;6.804;2023-12-04T03:05:35;15.93;;;13.47;;
8478;SDS011;4276;49.354;6.804;2023-12-04T03:08:01;16.43;;;13.77;;
8478;SDS011;4276;49.354;6.804;2023-12-04T03:10:28;14.60;;;12.97;;
8478;SDS011;4276;49.354;6.804;2023-12-04T03:12:56;13.80;;;12.40;;
8478;SDS011;4276;49.354;6.804;2023-12-04T03:15:22;15.37;;;12.47;;
8478;SDS011;4276;49.354;6.804;2023-12-04T03:17:49;13.37;;;11.53;;
8478;SDS011;4276;49.354;6.804;2023-12-04T03:20:16;14.10;;;11.60;;
8478;SDS011;4276;49.354;6.804;2023-12-04T03:22:42;13.30;;;11.90;;
8478;SDS011;4276;49.354;6.804;2023-12-04T03:25:08;14.07;;;12.10;;
8478;SDS011;4276;49.354;6.804;2023-12-04T03:27:35;12.77;;;10.53;;
8478;SDS011;4276;49.354;6.804;2023-12-04T03:30:02;13.90;;;12.33;;
8478;SDS011;4276;49.354;6.804;2023-12-04T03:32:29;15.17;;;11.90;;
8478;SDS011;4276;49.354;6.804;2023-12-04T03:34:56;13.50;;;11.40;;
8478;SDS011;4276;49.354;6.804;2023-12-04T03:37:23;15.63;;;12.40;;
8478;SDS011;4276;49.354;6.804;2023-12-04T03:39:50;12.50;;;11.18;;
8478;SDS011;4276;49.354;6.804;2023-12-04T03:42:17;12.70;;;10.87;;
8478;SDS011;4276;49.354;6.804;2023-12-04T03:44:44;13.73;;;12.33;;
8478;SDS011;4276;49.354;6.804;2023-12-04T03:47:10;13.30;;;11.90;;
8478;SDS011;4276;49.354;6.804;2023-12-04T03:49:37;12.43;;;11.13;;
8478;SDS011;4276;49.354;6.804;2023-12-04T03:52:04;13.27;;;11.63;;
8478;SDS011;4276;49.354;6.804;2023-12-04T03:54:31;12.23;;;11.00;;
8478;SDS011;4276;49.354;6.804;2023-12-04T03:56:57;11.73;;;10.50;;
8478;SDS011;4276;49.354;6.804;2023-12-04T03:59:24;13.05;;;10.68;;
8478;SDS011;4276;49.354;6.804;2023-12-04T04:01:50;12.20;;;11.00;;
8478;SDS011;4276;49.354;6.804;2023-12-04T04:04:17;12.43;;;11.23;;
8478;SDS011;4276;49.354;6.804;2023-12-04T04:06:45;12.63;;;11.23;;
8478;SDS011;4276;49.354;6.804;2023-12-04T04:09:11;14.57;;;10.57;;
8478;SDS011;4276;49.354;6.804;2023-12-04T04:11:38;12.37;;;10.80;;
8478;SDS011;4276;49.354;6.804;2023-12-04T04:14:04;14.50;;;12.23;;
8478;SDS011;4276;49.354;6.804;2023-12-04T04:16:31;11.97;;;10.57;;
8478;SDS011;4276;49.354;6.804;2023-12-04T04:18:58;11.53;;;10.33;;
8478;SDS011;4276;49.354;6.804;2023-12-04T04:21:24;12.00;;;10.73;;
8478;SDS011;4276;49.354;6.804;2023-12-04T04:23:51;11.40;;;10.17;;
8478;SDS011;4276;49.354;6.804;2023-12-04T04:26:18;11.47;;;10.03;;
8478;SDS011;4276;49.354;6.804;2023-12-04T04:28:44;11.67;;;10.47;;
8478;SDS011;4276;49.354;6.804;2023-12-04T04:31:11;11.95;;;10.63;;
8478;SDS011;4276;49.354;6.804;2023-12-04T04:33:37;11.27;;;10.10;;
8478;SDS011;4276;49.354;6.804;2023-12-04T04:36:04;12.67;;;11.37;;
8478;SDS011;4276;49.354;6.804;2023-12-04T04:38:31;12.02;;;10.73;;
8478;SDS011;4276;49.354;6.804;2023-12-04T04:40:57;11.98;;;10.77;;
8478;SDS011;4276;49.354;6.804;2023-12-04T04:43:24;11.97;;;10.77;;
8478;SDS011;4276;49.354;6.804;2023-12-04T04:45:50;12.15;;;10.75;;
8478;SDS011;4276;49.354;6.804;2023-12-04T04:48:18;11.97;;;10.77;;
8478;SDS011;4276;49.354;6.804;2023-12-04T04:50:45;11.60;;;10.40;;
8478;SDS011;4276;49.354;6.804;2023-12-04T04:53:12;11.48;;;9.95;;
8478;SDS011;4276;49.354;6.804;2023-12-04T04:55:38;11.20;;;9.97;;
8478;SDS011;4276;49.354;6.804;2023-12-04T04:58:14;11.43;;;10.25;;
8478;SDS011;4276;49.354;6.804;2023-12-04T05:00:42;11.63;;;10.27;;
8478;SDS011;4276;49.354;6.804;2023-12-04T05:03:09;12.00;;;10.73;;
8478;SDS011;4276;49.354;6.804;2023-12-04T05:05:36;12.83;;;10.97;;
8478;SDS011;4276;49.354;6.804;2023-12-04T05:08:02;10.77;;;9.67;;
8478;SDS011;4276;49.354;6.804;2023-12-04T05:10:29;12.52;;;10.48;;
8478;SDS011;4276;49.354;6.804;2023-12-04T05:12:55;11.68;;;10.48;;
8478;SDS011;4276;49.354;6.804;2023-12-04T05:15:22;11.55;;;10.43;;
8478;SDS011;4276;49.354;6.804;2023-12-04T05:17:48;14.13;;;11.07;;
8478;SDS011;4276;49.354;6.804;2023-12-04T05:20:15;12.20;;;10.95;;
8478;SDS011;4276;49.354;6.804;2023-12-04T05:22:41;12.45;;;11.15;;
8478;SDS011;4276;49.354;6.804;2023-12-04T05:25:08;14.30;;;11.43;;
8478;SDS011;4276;49.354;6.804;2023-12-04T05:27:34;12.20;;;10.98;;
8478;SDS011;4276;49.354;6.804;2023-12-04T05:30:01;11.60;;;10.50;;
8478;SDS011;4276;49.354;6.804;2023-12-04T05:32:28;11.80;;;10.60;;
8478;SDS011;4276;49.354;6.804;2023-12-04T05:34:55;12.10;;;10.90;;
8478;SDS011;4276;49.354;6.804;2023-12-04T05:37:21;11.70;;;10.50;;
8478;SDS011;4276;49.354;6.804;2023-12-04T05:39:48;12.00;;;10.80;;
8478;SDS011;4276;49.354;6.804;2023-12-04T05:42:14;11.38;;;10.27;;
8478;SDS011;4276;49.354;6.804;2023-12-04T05:44:41;11.70;;;9.70;;
8478;SDS011;4276;49.354;6.804;2023-12-04T05:47:07;14.55;;;12.88;;
8478;SDS011;4276;49.354;6.804;2023-12-04T05:49:34;12.02;;;10.82;;
8478;SDS011;4276;49.354;6.804;2023-12-04T05:52:01;11.55;;;10.35;;
8478;SDS011;4276;49.354;6.804;2023-12-04T05:54:27;11.60;;;10.40;;
8478;SDS011;4276;49.354;6.804;2023-12-04T05:56:54;11.98;;;10.77;;
8478;SDS011;4276;49.354;6.804;2023-12-04T05:59:20;10.43;;;9.43;;
8478;SDS011;4276;49.354;6.804;2023-12-04T06:01:47;11.68;;;10.48;;
8478;SDS011;4276;49.354;6.804;2023-12-04T06:04:14;11.37;;;10.17;;
8478;SDS011;4276;49.354;6.804;2023-12-04T06:06:41;11.30;;;10.18;;
8478;SDS011;4276;49.354;6.804;2023-12-04T06:09:07;11.30;;;10.18;;
8478;SDS011;4276;49.354;6.804;2023-12-04T06:11:34;11.80;;;10.60;;
8478;SDS011;4276;49.354;6.804;2023-12-04T06:14:00;12.82;;;11.52;;
8478;SDS011;4276;49.354;6.804;2023-12-04T06:16:28;11.38;;;9.70;;
8478;SDS011;4276;49.354;6.804;2023-12-04T06:18:56;11.30;;;10.05;;
8478;SDS011;4276;49.354;6.804;2023-12-04T06:21:23;12.45;;;10.82;;
8478;SDS011;4276;49.354;6.804;2023-12-04T06:23:49;11.10;;;10.00;;
8478;SDS011;4276;49.354;6.804;2023-12-04T06:26:16;11.48;;;10.27;;
8478;SDS011;4276;49.354;6.804;2023-12-04T06:28:44;11.65;;;9.95;;
8478;SDS011;4276;49.354;6.804;2023-12-04T06:31:11;11.45;;;10.23;;
8478;SDS011;4276;49.354;6.804;2023-12-04T06:33:38;10.90;;;9.80;;
8478;SDS011;4276;49.354;6.804;2023-12-04T06:36:05;10.60;;;9.60;;
8478;SDS011;4276;49.354;6.804;2023-12-04T06:38:33;10.95;;;9.95;;
8478;SDS011;4276;49.354;6.804;2023-12-04T06:41:04;12.60;;;10.85;;
8478;SDS011;4276;49.354;6.804;2023-12-04T06:43:31;11.10;;;10.00;;
8478;SDS011;4276;49.354;6.804;2023-12-04T06:45:59;10.82;;;9.73;;
8478;SDS011;4276;49.354;6.804;2023-12-04T06:48:26;11.55;;;10.35;;
8478;SDS011;4276;49.354;6.804;2023-12-04T06:50:53;10.95;;;9.52;;
8478;SDS011;4276;49.354;6.804;2023-12-04T06:53:19;11.55;;;10.35;;
8478;SDS011;4276;49.354;6.804;2023-12-04T06:55:45;10.70;;;9.60;;
8478;SDS011;4276;49.354;6.804;2023-12-04T06:58:12;12.68;;;10.32;;
8478;SDS011;4276;49.354;6.804;2023-12-04T07:00:39;11.00;;;9.90;;
8478;SDS011;4276;49.354;6.804;2023-12-04T07:03:06;10.48;;;9.40;;
8478;SDS011;4276;49.354;6.804;2023-12-04T07:05:33;11.48;;;10.32;;
8478;SDS011;4276;49.354;6.804;2023-12-04T07:07:59;14.23;;;11.70;;
8478;SDS011;4276;49.354;6.804;2023-12-04T07:10:26;11.80;;;9.82;;
8478;SDS011;4276;49.354;6.804;2023-12-04T07:12:52;12.05;;;10.75;;
8478;SDS011;4276;49.354;6.804;2023-12-04T07:15:19;10.85;;;9.75;;
8478;SDS011;4276;49.354;6.804;2023-12-04T07:17:45;12.13;;;10.90;;
8478;SDS011;4276;49.354;6.804;2023-12-04T07:20:13;12.95;;;11.30;;
8478;SDS011;4276;49.354;6.804;2023-12-04T07:22:39;15.02;;;12.32;;
8478;SDS011;4276;49.354;6.804;2023-12-04T07:25:06;15.47;;;12.83;;
8478;SDS011;4276;49.354;6.804;2023-12-04T07:27:34;15.50;;;13.23;;
8478;SDS011;4276;49.354;6.804;2023-12-04T07:30:01;15.10;;;12.80;;
8478;SDS011;4276;49.354;6.804;2023-12-04T07:32:28;13.27;;;11.20;;
8478;SDS011;4276;49.354;6.804;2023-12-04T07:34:55;13.38;;;11.40;;
8478;SDS011;4276;49.354;6.804;2023-12-04T07:37:21;15.88;;;11.57;;
8478;SDS011;4276;49.354;6.804;2023-12-04T07:39:48;12.45;;;11.15;;
8478;SDS011;4276;49.354;6.804;2023-12-04T07:42:14;13.07;;;10.98;;
8478;SDS011;4276;49.354;6.804;2023-12-04T07:44:41;12.82;;;11.15;;
8478;SDS011;4276;49.354;6.804;2023-12-04T07:47:08;12.65;;;11.27;;
8478;SDS011;4276;49.354;6.804;2023-12-04T07:49:34;13.70;;;11.35;;
8478;SDS011;4276;49.354;6.804;2023-12-04T07:52:01;12.77;;;11.38;;
8478;SDS011;4276;49.354;6.804;2023-12-04T07:54:28;14.13;;;11.65;;
8478;SDS011;4276;49.354;6.804;2023-12-04T07:56:56;12.30;;;11.10;;
8478;SDS011;4276;49.354;6.804;2023-12-04T07:59:23;12.98;;;11.68;;
8478;SDS011;4276;49.354;6.804;2023-12-04T08:01:50;11.82;;;10.35;;
8478;SDS011;4276;49.354;6.804;2023-12-04T08:04:16;11.43;;;10.30;;
8478;SDS011;4276;49.354;6.804;2023-12-04T08:06:43;11.95;;;10.60;;
8478;SDS011;4276;49.354;6.804;2023-12-04T08:09:10;12.45;;;10.63;;
8478;SDS011;4276;49.354;6.804;2023-12-04T08:11:36;12.48;;;10.95;;
8478;SDS011;4276;49.354;6.804;2023-12-04T08:14:03;12.25;;;10.90;;
8478;SDS011;4276;49.354;6.804;2023-12-04T08:16:30;12.45;;;11.02;;
8478;SDS011;4276;49.354;6.804;2023-12-04T08:18:56;12.68;;;11.38;;
8478;SDS011;4276;49.354;6.804;2023-12-04T08:21:23;13.05;;;11.75;;
8478;SDS011;4276;49.354;6.804;2023-12-04T08:23:50;18.75;;;11.82;;
8478;SDS011;4276;49.354;6.804;2023-12-04T08:26:21;11.70;;;10.50;;
8478;SDS011;4276;49.354;6.804;2023-12-04T08:28:51;11.50;;;10.25;;
8478;SDS011;4276;49.354;6.804;2023-12-04T08:31:18;11.02;;;9.93;;
8478;SDS011;4276;49.354;6.804;2023-12-04T08:33:45;11.52;;;10.40;;
8478;SDS011;4276;49.354;6.804;2023-12-04T08:36:12;10.60;;;9.60;;
8478;SDS011;4276;49.354;6.804;2023-12-04T08:38:38;10.25;;;9.20;;
8478;SDS011;4276;49.354;6.804;2023-12-04T08:41:05;11.50;;;10.30;;
8478;SDS011;4276;49.354;6.804;2023-12-04T08:43:32;11.48;;;10.35;;
8478;SDS011;4276;49.354;6.804;2023-12-04T08:45:58;11.48;;;10.27;;
8478;SDS011;4276;49.354;6.804;2023-12-04T08:48:26;11.65;;;10.45;;
8478;SDS011;4276;49.354;6.804;2023-12-04T08:50:54;13.18;;;10.80;;
8478;SDS011;4276;49.354;6.804;2023-12-04T08:53:20;11.13;;;10.05;;
8478;SDS011;4276;49.354;6.804;2023-12-04T08:55:47;11.80;;;10.68;;
8478;SDS011;4276;49.354;6.804;2023-12-04T08:58:14;11.90;;;10.55;;
8478;SDS011;4276;49.354;6.804;2023-12-04T09:00:41;11.25;;;10.00;;
8478;SDS011;4276;49.354;6.804;2023-12-04T09:03:09;11.23;;;10.13;;
8478;SDS011;4276;49.354;6.804;2023-12-04T09:05:47;11.70;;;10.43;;
8478;SDS011;4276;49.354;6.804;2023-12-04T09:08:17;12.27;;;10.73;;
8478;SDS011;4276;49.354;6.804;2023-12-04T09:11:01;11.90;;;10.65;;
8478;SDS011;4276;49.354;6.804;2023-12-04T09:13:47;12.18;;;10.82;;
8478;SDS011;4276;49.354;6.804;2023-12-04T09:16:14;12.52;;;11.25;;
8478;SDS011;4276;49.354;6.804;2023-12-04T09:18:40;11.98;;;10.77;;
8478;SDS011;4276;49.354;6.804;2023-12-04T09:21:07;11.77;;;10.57;;
8478;SDS011;4276;49.354;6.804;2023-12-04T09:23:35;12.02;;;10.82;;
8478;SDS011;4276;49.354;6.804;2023-12-04T09:26:02;12.15;;;10.85;;
8478;SDS011;4276;49.354;6.804;2023-12-04T09:28:29;13.38;;;12.00;;
8478;SDS011;4276;49.354;6.804;2023-12-04T09:30:56;14.57;;;12.93;;
8478;SDS011;4276;49.354;6.804;2023-12-04T09:33:22;12.15;;;10.95;;
8478;SDS011;4276;49.354;6.804;2023-12-04T09:35:49;12.77;;;11.50;;
8478;SDS011;4276;49.354;6.804;2023-12-04T09:38:16;13.88;;;11.93;;
8478;SDS011;4276;49.354;6.804;2023-12-04T09:40:43;14.05;;;12.65;;
8478;SDS011;4276;49.354;6.804;2023-12-04T09:43:09;13.27;;;11.88;;
8478;SDS011;4276;49.354;6.804;2023-12-04T09:45:36;13.32;;;11.98;;
8478;SDS011;4276;49.354;6.804;2023-12-04T09:48:05;12.43;;;11.05;;
8478;SDS011;4276;49.354;6.804;2023-12-04T09:50:32;14.00;;;12.50;;
8478;SDS011;4276;49.354;6.804;2023-12-04T09:52:59;14.50;;;12.98;;
8478;SDS011;4276;49.354;6.804;2023-12-04T09:55:27;13.73;;;11.55;;
8478;SDS011;4276;49.354;6.804;2023-12-04T09:57:53;14.57;;;12.80;;
8478;SDS011;4276;49.354;6.804;2023-12-04T10:00:20;14.20;;;12.63;;
8478;SDS011;4276;49.354;6.804;2023-12-04T10:02:48;13.18;;;11.57;;
8478;SDS011;4276;49.354;6.804;2023-12-04T10:05:15;14.80;;;12.98;;
8478;SDS011;4276;49.354;6.804;2023-12-04T10:07:41;16.90;;;13.95;;
8478;SDS011;4276;49.354;6.804;2023-12-04T10:10:08;13.32;;;11.75;;
8478;SDS011;4276;49.354;6.804;2023-12-04T10:12:35;13.77;;;12.10;;
8478;SDS011;4276;49.354;6.804;2023-12-04T10:15:06;14.80;;;12.77;;
8478;SDS011;4276;49.354;6.804;2023-12-04T10:17:40;15.57;;;13.85;;
8478;SDS011;4276;49.354;6.804;2023-12-04T10:20:13;15.50;;;13.38;;
8478;SDS011;4276;49.354;6.804;2023-12-04T10:22:58;13.68;;;12.20;;
8478;SDS011;4276;49.354;6.804;2023-12-04T10:25:26;15.07;;;12.50;;
8478;SDS011;4276;49.354;6.804;2023-12-04T10:28:06;13.82;;;12.45;;
8478;SDS011;4276;49.354;6.804;2023-12-04T10:30:37;14.23;;;12.52;;
8478;SDS011;4276;49.354;6.804;2023-12-04T10:33:04;13.88;;;12.50;;
8478;SDS011;4276;49.354;6.804;2023-12-04T10:35:32;13.70;;;12.30;;
8478;SDS011;4276;49.354;6.804;2023-12-04T10:38:02;17.20;;;14.00;;
8478;SDS011;4276;49.354;6.804;2023-12-04T10:40:31;13.15;;;11.80;;
8478;SDS011;4276;49.354;6.804;2023-12-04T10:43:11;13.32;;;12.02;;
8478;SDS011;4276;49.354;6.804;2023-12-04T10:45:45;12.52;;;11.23;;
8478;SDS011;4276;49.354;6.804;2023-12-04T10:48:13;12.10;;;10.90;;
8478;SDS011;4276;49.354;6.804;2023-12-04T10:50:42;15.05;;;13.32;;
8478;SDS011;4276;49.354;6.804;2023-12-04T10:53:11;13.65;;;12.07;;
8478;SDS011;4276;49.354;6.804;2023-12-04T10:55:39;12.82;;;11.50;;
8478;SDS011;4276;49.354;6.804;2023-12-04T10:58:06;12.95;;;11.63;;
8478;SDS011;4276;49.354;6.804;2023-12-04T11:00:36;11.98;;;10.75;;
8478;SDS011;4276;49.354;6.804;2023-12-04T11:03:07;13.48;;;12.07;;
8478;SDS011;4276;49.354;6.804;2023-12-04T11:05:37;13.13;;;11.75;;
8478;SDS011;4276;49.354;6.804;2023-12-04T11:08:05;14.27;;;12.80;;
8478;SDS011;4276;49.354;6.804;2023-12-04T11:10:48;13.93;;;12.57;;
8478;SDS011;4276;49.354;6.804;2023-12-04T11:13:35;15.45;;;12.48;;
8478;SDS011;4276;49.354;6.804;2023-12-04T14:01:13;12.85;;;10.82;;
8478;SDS011;4276;49.354;6.804;2023-12-04T14:03:42;10.80;;;9.70;;
8478;SDS011;4276;49.354;6.804;2023-12-04T14:06:11;11.32;;;9.90;;
8478;SDS011;4276;49.354;6.804;2023-12-04T14:08:39;11.60;;;10.40;;
8478;SDS011;4276;49.354;6.804;2023-12-04T14:11:07;12.25;;;10.52;;
8478;SDS011;4276;49.354;6.804;2023-12-04T19:44:27;30.40;;;23.50;;
8478;SDS011;4276;49.354;6.804;2023-12-04T19:46:54;30.75;;;24.23;;
8478;SDS011;4276;49.354;6.804;2023-12-04T19:49:21;30.70;;;24.35;;
8478;SDS011;4276;49.354;6.804;2023-12-04T19:51:48;36.22;;;29.25;;
8478;SDS011;4276;49.354;6.804;2023-12-04T19:54:15;37.60;;;28.75;;
8478;SDS011;4276;49.354;6.804;2023-12-04T19:56:42;25.35;;;22.58;;
8478;SDS011;4276;49.354;6.804;2023-12-04T19:59:09;29.73;;;24.48;;
8478;SDS011;4276;49.354;6.804;2023-12-04T20:01:37;30.70;;;25.13;;
8478;SDS011;4276;49.354;6.804;2023-12-04T20:04:04;28.25;;;22.00;;
8478;SDS011;4276;49.354;6.804;2023-12-04T20:06:30;25.02;;;19.15;;
8478;SDS011;4276;49.354;6.804;2023-12-04T20:08:57;34.00;;;23.55;;
8478;SDS011;4276;49.354;6.804;2023-12-04T20:11:25;22.00;;;18.17;;
8478;SDS011;4276;49.354;6.804;2023-12-04T20:13:51;24.40;;;19.65;;
8478;SDS011;4276;49.354;6.804;2023-12-04T20:16:19;32.60;;;23.02;;
8478;SDS011;4276;49.354;6.804;2023-12-04T20:18:46;34.03;;;22.70;;
8478;SDS011;4276;49.354;6.804;2023-12-04T20:21:13;23.67;;;19.35;;
8478;SDS011;4276;49.354;6.804;2023-12-04T20:23:41;28.52;;;20.73;;
8478;SDS011;4276;49.354;6.804;2023-12-04T20:26:07;32.33;;;24.27;;
8478;SDS011;4276;49.354;6.804;2023-12-04T20:28:34;21.05;;;16.92;;
8478;SDS011;4276;49.354;6.804;2023-12-04T20:31:00;23.08;;;16.90;;
8478;SDS011;4276;49.354;6.804;2023-12-04T20:33:27;23.08;;;16.17;;
8478;SDS011;4276;49.354;6.804;2023-12-04T20:35:54;16.88;;;15.07;;
8478;SDS011;4276;49.354;6.804;2023-12-04T20:38:20;20.98;;;17.77;;
8478;SDS011;4276;49.354;6.804;2023-12-04T20:40:47;23.85;;;19.33;;
8478;SDS011;4276;49.354;6.804;2023-12-04T20:43:14;24.15;;;19.70;;
8478;SDS011;4276;49.354;6.804;2023-12-04T20:45:41;29.33;;;22.75;;
8478;SDS011;4276;49.354;6.804;2023-12-04T20:48:09;23.77;;;18.20;;
8478;SDS011;4276;49.354;6.804;2023-12-04T20:50:38;17.70;;;15.40;;
8478;SDS011;4276;49.354;6.804;2023-12-04T20:53:07;20.92;;;17.80;;
8478;SDS011;4276;49.354;6.804;2023-12-04T20:55:34;18.48;;;16.17;;
8478;SDS011;4276;49.354;6.804;2023-12-04T20:58:04;23.45;;;19.02;;
8478;SDS011;4276;49.354;6.804;2023-12-04T21:00:31;20.98;;;17.83;;
8478;SDS011;4276;49.354;6.804;2023-12-04T21:03:00;18.23;;;16.33;;
8478;SDS011;4276;49.354;6.804;2023-12-04T21:05:27;24.63;;;17.05;;
8478;SDS011;4276;49.354;6.804;2023-12-04T21:07:54;14.13;;;12.63;;
8478;SDS011;4276;49.354;6.804;2023-12-04T21:10:21;16.35;;;14.48;;
8478;SDS011;4276;49.354;6.804;2023-12-04T21:12:48;15.98;;;14.05;;
8478;SDS011;4276;49.354;6.804;2023-12-04T21:15:15;15.52;;;13.93;;
8478;SDS011;4276;49.354;6.804;2023-12-04T21:17:41;18.10;;;14.43;;
8478;SDS011;4276;49.354;6.804;2023-12-04T21:20:08;17.85;;;14.98;;
8478;SDS011;4276;49.354;6.804;2023-12-04T21:22:36;17.67;;;14.57;;
8478;SDS011;4276;49.354;6.804;2023-12-04T21:25:02;16.17;;;13.93;;
8478;SDS011;4276;49.354;6.804;2023-12-04T21:27:29;14.98;;;12.65;;
8478;SDS011;4276;49.354;6.804;2023-12-04T21:29:57;14.65;;;13.07;;
8478;SDS011;4276;49.354;6.804;2023-12-04T21:32:24;14.98;;;13.40;;
8478;SDS011;4276;49.354;6.804;2023-12-04T21:34:51;12.50;;;11.25;;
8478;SDS011;4276;49.354;6.804;2023-12-04T21:37:17;13.15;;;11.68;;
8478;SDS011;4276;49.354;6.804;2023-12-04T21:39:44;14.20;;;11.93;;
8478;SDS011;4276;49.354;6.804;2023-12-04T21:42:14;15.55;;;13.95;;
8478;SDS011;4276;49.354;6.804;2023-12-04T21:44:40;14.82;;;12.38;;
8478;SDS011;4276;49.354;6.804;2023-12-04T21:47:07;13.07;;;11.73;;
8478;SDS011;4276;49.354;6.804;2023-12-04T21:49:33;13.30;;;11.90;;
8478;SDS011;4276;49.354;6.804;2023-12-04T21:52:00;15.00;;;11.93;;
8478;SDS011;4276;49.354;6.804;2023-12-04T21:54:26;15.95;;;13.00;;
8478;SDS011;4276;49.354;6.804;2023-12-04T21:56:54;12.30;;;11.00;;
8478;SDS011;4276;49.354;6.804;2023-12-04T21:59:20;14.43;;;12.43;;
8478;SDS011;4276;49.354;6.804;2023-12-04T22:01:55;11.52;;;10.32;;
8478;SDS011;4276;49.354;6.804;2023-12-04T22:04:23;9.35;;;8.45;;
8478;SDS011;4276;49.354;6.804;2023-12-04T22:06:50;9.15;;;8.25;;
8478;SDS011;4276;49.354;6.804;2023-12-04T22:09:17;9.30;;;7.95;;
8478;SDS011;4276;49.354;6.804;2023-12-04T22:11:43;8.75;;;7.85;;
8478;SDS011;4276;49.354;6.804;2023-12-04T22:14:10;7.55;;;6.85;;
8478;SDS011;4276;49.354;6.804;2023-12-04T22:16:36;8.15;;;7.35;;
8478;SDS011;4276;49.354;6.804;2023-12-04T22:19:03;8.18;;;7.38;;
8478;SDS011;4276;49.354;6.804;2023-12-04T22:21:31;9.27;;;7.68;;
8478;SDS011;4276;49.354;6.804;2023-12-04T22:23:57;7.85;;;6.20;;
8478;SDS011;4276;49.354;6.804;2023-12-04T22:26:24;9.98;;;9.00;;
8478;SDS011;4276;49.354;6.804;2023-12-04T22:28:50;6.47;;;5.70;;
8478;SDS011;4276;49.354;6.804;2023-12-04T22:31:18;7.75;;;6.85;;
8478;SDS011;4276;49.354;6.804;2023-12-04T22:33:44;6.85;;;6.18;;
8478;SDS011;4276;49.354;6.804;2023-12-04T22:36:11;5.95;;;5.15;;
8478;SDS011;4276;49.354;6.804;2023-12-04T22:38:39;8.50;;;7.70;;
8478;SDS011;4276;49.354;6.804;2023-12-04T22:41:06;10.63;;;9.63;;
8478;SDS011;4276;49.354;6.804;2023-12-04T22:43:33;9.13;;;8.32;;
8478;SDS011;4276;49.354;6.804;2023-12-04T22:45:59;6.30;;;5.70;;
8478;SDS011;4276;49.354;6.804;2023-12-04T22:48:26;5.18;;;4.78;;
8478;SDS011;4276;49.354;6.804;2023-12-04T22:50:52;4.40;;;4.10;;
8478;SDS011;4276;49.354;6.804;2023-12-04T22:53:20;4.82;;;4.43;;
8478;SDS011;4276;49.354;6.804;2023-12-04T22:55:47;4.05;;;3.75;;
8478;SDS011;4276;49.354;6.804;2023-12-04T22:58:13;4.22;;;3.92;;
8478;SDS011;4276;49.354;6.804;2023-12-04T23:00:40;4.65;;;4.15;;
8478;SDS011;4276;49.354;6.804;2023-12-04T23:03:08;4.45;;;4.05;;
8478;SDS011;4276;49.354;6.804;2023-12-04T23:05:34;4.47;;;4.18;;
8478;SDS011;4276;49.354;6.804;2023-12-04T23:08:01;5.13;;;3.90;;